createdAt,value
2018-07-20T12:57:45.365Z,4.20
2018-07-20T13:00:14.141Z,4.50
2018-07-20T13:02:43.207Z,4.78
2018-07-20T13:05:11.754Z,4.40
2018-07-20T13:07:40.650Z,4.45
2018-07-20T13:10:09.458Z,4.80
2018-07-20T13:12:38.192Z,4.30
2018-07-20T13:15:07.094Z,4.30
2018-07-20T13:17:35.864Z,4.90
2018-07-20T13:20:04.923Z,4.90
2018-07-20T13:22:33.595Z,4.53
2018-07-20T13:25:02.677Z,4.47
2018-07-20T13:27:31.403Z,4.83
2018-07-20T13:30:00.383Z,4.85
2018-07-20T13:32:28.919Z,4.78
2018-07-20T13:34:57.742Z,5.00
2018-07-20T13:37:26.364Z,4.47
2018-07-20T13:39:54.951Z,4.67
2018-07-20T13:42:23.675Z,4.33
2018-07-20T13:44:53.755Z,4.60
2018-07-20T13:47:22.603Z,4.95
2018-07-20T13:49:51.629Z,4.67
2018-07-20T13:52:20.537Z,4.65
2018-07-20T13:54:49.302Z,4.90
2018-07-20T13:57:18.149Z,4.97
2018-07-20T13:59:46.810Z,4.83
2018-07-20T14:02:16.534Z,4.55
2018-07-20T14:04:45.178Z,4.90
2018-07-20T14:07:13.927Z,5.30
2018-07-20T14:09:43.173Z,6.33
2018-07-20T14:12:11.981Z,5.37
2018-07-20T14:14:40.779Z,4.62
2018-07-20T14:17:10.230Z,4.80
2018-07-20T14:19:38.911Z,4.65
2018-07-20T14:22:07.947Z,4.47
2018-07-20T14:24:37.073Z,4.33
2018-07-20T14:27:05.604Z,4.33
2018-07-20T14:29:34.612Z,4.05
2018-07-20T14:32:03.320Z,4.10
2018-07-20T14:34:32.135Z,4.15
2018-07-20T14:37:00.784Z,4.35
2018-07-20T14:39:29.583Z,3.95
2018-07-20T14:41:58.369Z,4.45
2018-07-20T14:44:27.311Z,4.15
2018-07-20T14:46:55.857Z,4.10
2018-07-20T14:49:24.933Z,4.22
2018-07-20T14:51:53.549Z,3.72
2018-07-20T14:54:22.733Z,4.00
2018-07-20T14:56:52.629Z,3.75
2018-07-20T14:59:21.627Z,4.20
2018-07-20T15:01:50.583Z,3.52
2018-07-20T15:04:19.270Z,3.83
2018-07-20T15:06:48.055Z,3.65
2018-07-20T15:09:16.681Z,3.72
2018-07-20T15:11:45.534Z,3.40
2018-07-20T15:14:13.749Z,3.95
2018-07-20T15:16:41.994Z,4.30
2018-07-20T15:19:10.517Z,51.35
2018-07-20T15:21:39.452Z,45.92
2018-07-20T15:24:08.123Z,45.83
2018-07-20T15:26:36.884Z,45.08
2018-07-20T15:29:06.614Z,45.90
2018-07-20T15:31:37.003Z,44.05
2018-07-20T15:34:08.733Z,44.40
2018-07-20T15:36:38.545Z,43.10
2018-07-20T15:39:10.788Z,43.60
2018-07-20T15:41:40.905Z,43.58
2018-07-20T15:53:46.433Z,3.70
2018-07-20T15:56:15.750Z,3.50
2018-07-20T15:58:44.266Z,3.80
2018-07-20T16:01:13.311Z,3.70
2018-07-20T16:03:41.696Z,3.72
2018-07-20T16:06:10.437Z,3.50
2018-07-20T16:08:38.999Z,3.60
2018-07-20T16:11:07.681Z,4.12
2018-07-20T16:13:36.634Z,3.90
2018-07-20T16:16:05.564Z,4.08
2018-07-20T16:18:34.261Z,3.90
2018-07-20T16:21:03.218Z,3.80
2018-07-20T16:23:32.342Z,3.80
2018-07-20T16:26:01.648Z,4.05
2018-07-20T16:28:30.299Z,3.77
2018-07-20T16:30:58.938Z,3.95
2018-07-20T16:33:27.743Z,3.98
2018-07-20T16:35:57.724Z,4.03
2018-07-20T16:38:26.389Z,3.70
2018-07-20T16:40:54.958Z,3.80
2018-07-20T16:43:23.706Z,3.25
2018-07-20T16:45:52.680Z,4.20
2018-07-20T16:48:21.234Z,3.75
2018-07-20T16:50:49.985Z,4.15
2018-07-20T16:53:18.612Z,3.72
2018-07-20T16:55:47.345Z,3.67
2018-07-20T16:58:16.125Z,3.40
2018-07-20T17:00:44.894Z,3.75
2018-07-20T17:03:13.550Z,4.03
2018-07-20T17:05:42.639Z,4.20
2018-07-20T17:08:11.483Z,4.15
2018-07-20T17:10:40.338Z,3.80
2018-07-20T17:13:09.155Z,4.37
2018-07-20T17:15:37.922Z,4.10
2018-07-20T17:18:06.700Z,4.47
2018-07-20T17:20:35.355Z,4.40
2018-07-20T17:23:04.092Z,4.17
2018-07-20T17:25:32.762Z,4.17
2018-07-20T17:28:01.614Z,4.35
2018-07-20T17:30:30.437Z,4.60
2018-07-20T17:32:59.179Z,4.28
2018-07-20T17:35:28.334Z,4.67
2018-07-20T17:37:57.401Z,4.83
2018-07-20T17:40:26.155Z,5.20
2018-07-20T17:42:54.907Z,4.83
2018-07-20T17:45:24.065Z,4.50
2018-07-20T17:47:53.002Z,4.28
2018-07-20T17:50:21.686Z,4.50
2018-07-20T17:52:50.345Z,4.78
2018-07-20T17:55:19.096Z,5.08
2018-07-20T17:57:47.600Z,4.75
2018-07-20T18:00:19.994Z,4.60
2018-07-20T18:02:48.767Z,4.40
2018-07-20T18:05:17.597Z,4.40
2018-07-20T18:07:46.535Z,4.40
2018-07-20T18:10:15.280Z,4.55
2018-07-20T18:12:43.888Z,4.65
2018-07-20T18:15:12.723Z,4.60
2018-07-20T18:17:41.626Z,5.10
2018-07-20T18:20:10.327Z,4.97
2018-07-20T18:22:39.068Z,5.03
2018-07-20T18:25:07.816Z,4.53
2018-07-20T18:27:36.523Z,4.75
2018-07-20T18:30:06.590Z,4.85
2018-07-20T18:32:35.487Z,4.47
2018-07-20T18:35:04.435Z,4.92
2018-07-20T18:37:33.435Z,4.70
2018-07-20T18:40:02.327Z,5.30
2018-07-20T18:42:31.216Z,4.67
2018-07-20T18:44:59.875Z,4.75
2018-07-20T18:47:28.503Z,5.50
2018-07-20T18:49:57.257Z,4.80
2018-07-20T18:52:26.024Z,5.58
2018-07-20T18:54:54.720Z,4.90
2018-07-20T18:57:23.360Z,5.20
2018-07-20T18:59:52.079Z,4.80
2018-07-20T19:02:21.069Z,5.00
2018-07-20T19:04:49.853Z,5.10
2018-07-20T19:07:18.571Z,5.12
2018-07-20T19:09:47.200Z,4.95
2018-07-20T19:12:15.625Z,6.08
2018-07-20T19:14:44.463Z,5.05
2018-07-20T19:17:13.281Z,5.62
2018-07-20T19:19:42.150Z,5.92
2018-07-20T19:22:10.839Z,5.05
2018-07-20T19:24:39.597Z,4.87
2018-07-20T19:27:09.087Z,5.78
2018-07-20T19:29:37.820Z,5.80
2018-07-20T19:32:06.471Z,5.47
2018-07-20T19:34:35.735Z,5.70
2018-07-20T19:37:04.430Z,4.90
2018-07-20T19:39:33.510Z,5.50
2018-07-20T19:42:02.189Z,5.67
2018-07-20T19:44:30.826Z,5.40
2018-07-20T19:46:59.483Z,5.40
2018-07-20T19:49:28.135Z,5.25
2018-07-20T19:51:57.012Z,5.37
2018-07-20T19:54:25.533Z,5.65
2018-07-20T19:56:54.429Z,5.60
2018-07-20T19:59:23.119Z,5.67
2018-07-20T20:01:51.876Z,5.33
2018-07-20T20:04:20.654Z,5.67
2018-07-20T20:06:49.535Z,5.33
2018-07-20T20:09:18.244Z,5.60
2018-07-20T20:11:47.456Z,5.40
2018-07-20T20:14:16.367Z,5.42
2018-07-20T20:16:45.032Z,5.72
2018-07-20T20:19:13.552Z,5.70
2018-07-20T20:21:42.737Z,5.65
2018-07-20T20:24:12.044Z,5.78
2018-07-20T20:26:40.772Z,5.53
2018-07-20T20:29:09.850Z,5.78
2018-07-20T20:31:38.967Z,6.05
2018-07-20T20:34:07.742Z,5.65
2018-07-20T20:36:36.470Z,5.85
2018-07-20T20:39:11.535Z,5.58
2018-07-20T20:41:40.574Z,6.08
2018-07-20T20:44:10.468Z,5.95
2018-07-20T20:46:40.191Z,5.97
2018-07-20T20:49:09.441Z,5.60
2018-07-20T20:51:38.237Z,5.55
2018-07-20T20:54:07.842Z,5.67
2018-07-20T20:56:36.717Z,5.05
2018-07-20T20:59:05.761Z,6.05
2018-07-20T21:01:34.864Z,5.58
2018-07-20T21:04:03.734Z,5.58
2018-07-20T21:06:32.763Z,5.40
2018-07-20T21:09:01.521Z,6.10
2018-07-20T21:11:30.506Z,5.90
2018-07-20T21:13:58.902Z,5.08
2018-07-20T21:16:27.787Z,6.05
2018-07-20T21:18:56.607Z,5.67
2018-07-20T21:21:26.072Z,5.95
2018-07-20T21:23:54.948Z,5.58
2018-07-20T21:26:23.830Z,5.83
2018-07-20T21:28:53.208Z,5.90
2018-07-20T21:31:21.950Z,6.22
2018-07-20T21:33:51.302Z,5.10
2018-07-20T21:36:20.476Z,5.90
2018-07-20T21:38:49.256Z,5.78
2018-07-20T21:41:18.355Z,5.67
2018-07-20T21:43:47.033Z,5.95
2018-07-20T21:46:15.918Z,5.62
2018-07-20T21:48:44.964Z,5.50
2018-07-20T21:51:13.916Z,5.72
2018-07-20T21:53:42.667Z,5.55
2018-07-20T21:56:11.704Z,5.53
2018-07-20T21:58:40.726Z,5.67
2018-07-20T22:01:09.500Z,5.85
2018-07-20T22:03:38.402Z,5.47
2018-07-20T22:06:07.208Z,5.53
2018-07-20T22:08:35.902Z,6.22
2018-07-20T22:11:05.120Z,5.87
2018-07-20T22:13:33.862Z,5.62
2018-07-20T22:16:02.466Z,6.00
2018-07-20T22:18:31.186Z,5.42
2018-07-20T22:21:00.053Z,6.00
2018-07-20T22:23:29.071Z,5.70
2018-07-20T22:25:58.171Z,5.62
2018-07-20T22:28:27.675Z,5.67
2018-07-20T22:30:57.071Z,5.20
2018-07-20T22:33:26.035Z,6.00
2018-07-20T22:35:54.915Z,6.28
2018-07-20T22:38:23.953Z,5.95
2018-07-20T22:40:52.916Z,5.85
2018-07-20T22:43:21.839Z,6.00
2018-07-20T22:45:50.736Z,5.62
2018-07-20T22:48:19.699Z,5.78
2018-07-20T22:50:48.677Z,5.80
2018-07-20T22:53:17.980Z,5.92
2018-07-20T22:55:46.943Z,5.80
2018-07-20T22:58:15.779Z,5.55
2018-07-20T23:00:45.501Z,6.12
2018-07-20T23:03:14.400Z,6.00
2018-07-20T23:05:43.267Z,5.78
2018-07-20T23:08:12.701Z,5.67
2018-07-20T23:10:41.767Z,6.20
2018-07-20T23:13:10.605Z,5.80
2018-07-20T23:15:39.525Z,5.35
2018-07-20T23:18:08.366Z,5.72
2018-07-20T23:20:37.259Z,5.83
2018-07-20T23:23:06.131Z,5.87
2018-07-20T23:25:35.012Z,5.65
2018-07-20T23:28:04.015Z,5.42
2018-07-20T23:30:32.849Z,5.58
2018-07-20T23:33:02.015Z,5.70
2018-07-20T23:35:31.131Z,5.80
2018-07-20T23:38:00.456Z,5.85
2018-07-20T23:40:29.236Z,6.15
2018-07-20T23:42:57.669Z,4.78
2018-07-20T23:45:26.518Z,4.95
2018-07-20T23:47:55.664Z,5.10
2018-07-20T23:50:24.659Z,4.58
2018-07-20T23:52:53.385Z,4.97
2018-07-20T23:55:22.238Z,5.25
2018-07-20T23:57:51.163Z,4.90
